Time;durP1;ratioP1;P1;durP2;ratioP2;P2;SDS_P1;SDS_P2;PMS_P1;PMS_P2;Temp;Humidity;BMP_temperature;BMP_pressure;BME280_temperature;BME280_humidity;BME280_pressure;Samples;Min_cycle;Max_cycle;Signal;HPM_P1;HPM_P2
2022/10/27 00:01:59;;;;;;;13.87;7.37;;;;;;;15.42;86.97;101370.22;5052614;28;20242;-62
2022/10/27 00:04:27;;;;;;;17.47;7.33;;;;;;;15.36;86.83;101376.22;5052167;28;20246;-62
2022/10/27 00:06:54;;;;;;;13.43;6.90;;;;;;;15.29;87.15;101378.69;5047418;28;20887;-61
2022/10/27 00:09:22;;;;;;;13.40;6.87;;;;;;;15.28;87.14;101385.00;5048795;28;20218;-61
2022/10/27 00:11:50;;;;;;;16.13;6.90;;;;;;;15.31;86.21;101386.50;5049302;28;20256;-61
2022/10/27 00:14:19;;;;;;;15.63;6.87;;;;;;;15.23;86.17;101386.47;5045413;28;20223;-61
2022/10/27 00:16:52;;;;;;;17.47;8.13;;;;;;;15.24;86.10;101388.97;5050032;28;20239;-62
2022/10/27 00:19:20;;;;;;;15.23;7.27;;;;;;;15.22;85.95;101388.28;5053073;28;20215;-60
2022/10/27 00:21:49;;;;;;;17.10;6.67;;;;;;;15.13;86.05;101391.88;5053538;28;20208;-63
2022/10/27 00:24:17;;;;;;;14.67;6.37;;;;;;;15.09;86.31;101393.22;5045954;28;20248;-62
2022/10/27 00:26:44;;;;;;;14.63;6.67;;;;;;;15.10;86.89;101391.38;5049063;28;20266;-62
2022/10/27 00:29:12;;;;;;;19.03;6.57;;;;;;;15.17;87.07;101390.59;5048103;28;20280;-63
2022/10/27 00:31:41;;;;;;;14.03;6.70;;;;;;;15.28;86.37;101393.03;5047082;28;20213;-63
2022/10/27 00:34:09;;;;;;;13.87;6.50;;;;;;;15.27;86.23;101398.53;5047491;28;20207;-62
2022/10/27 00:36:36;;;;;;;12.20;6.40;;;;;;;15.35;86.12;101404.78;5044775;28;20211;-63
2022/10/27 00:39:04;;;;;;;14.03;6.60;;;;;;;15.31;86.00;101397.19;5046442;28;20235;-61
2022/10/27 00:41:34;;;;;;;14.97;6.60;;;;;;;15.15;87.00;101395.25;5045029;28;20207;-62
2022/10/27 00:44:22;;;;;;;13.80;6.30;;;;;;;15.13;87.66;101393.75;5046982;28;20969;-63
2022/10/27 00:46:52;;;;;;;13.00;6.73;;;;;;;15.20;87.33;101389.47;5048475;28;20204;-62
2022/10/27 00:49:25;;;;;;;14.13;7.27;;;;;;;15.25;86.75;101389.81;5043724;28;20204;-61
2022/10/27 00:51:57;;;;;;;16.83;7.43;;;;;;;15.27;88.23;101393.19;5044515;28;20203;-62
2022/10/27 00:54:28;;;;;;;14.47;7.20;;;;;;;15.28;87.72;101397.53;5044528;28;20212;-62
2022/10/27 00:56:57;;;;;;;14.43;6.87;;;;;;;15.24;88.08;101399.66;5044792;28;20665;-61
2022/10/27 00:59:25;;;;;;;15.63;7.10;;;;;;;15.25;87.38;101392.50;5043952;28;20228;-62
2022/10/27 01:01:55;;;;;;;12.03;6.37;;;;;;;15.14;87.58;101392.72;5041864;28;20203;-63
2022/10/27 01:04:34;;;;;;;13.07;7.13;;;;;;;15.04;88.52;101390.16;5049903;28;20887;-63
2022/10/27 01:07:02;;;;;;;18.30;7.13;;;;;;;15.09;88.20;101392.38;5048938;28;20211;-63
2022/10/27 01:09:31;;;;;;;12.93;6.83;;;;;;;15.01;88.29;101391.31;5050954;28;20573;-61
2022/10/27 01:11:59;;;;;;;13.87;6.70;;;;;;;14.95;88.38;101386.56;5047430;28;20220;-61
2022/10/27 01:14:27;;;;;;;15.50;7.23;;;;;;;14.93;88.53;101388.59;5047184;28;22205;-61
2022/10/27 01:17:09;;;;;;;16.00;6.83;;;;;;;14.94;88.42;101397.44;5044880;28;20240;-61
2022/10/27 01:19:55;;;;;;;12.50;6.33;;;;;;;14.95;87.71;101394.59;5045144;28;21144;-62
2022/10/27 01:22:30;;;;;;;11.73;6.63;;;;;;;14.95;86.92;101393.78;5043101;28;20668;-61
2022/10/27 01:25:38;;;;;;;15.40;7.20;;;;;;;14.84;87.58;101386.84;5044701;28;20239;-61
2022/10/27 01:28:33;;;;;;;13.40;5.97;;;;;;;14.80;87.71;101381.94;5044359;28;20211;-62
2022/10/27 01:31:08;;;;;;;12.00;5.90;;;;;;;14.87;87.40;101381.16;5043397;28;20225;-62
2022/10/27 01:33:44;;;;;;;13.33;6.43;;;;;;;14.91;86.55;101384.38;5045323;28;20264;-62
2022/10/27 01:36:22;;;;;;;14.60;7.33;;;;;;;14.93;86.86;101371.72;5056287;28;20207;-62
2022/10/27 01:38:58;;;;;;;16.87;6.73;;;;;;;14.87;87.48;101380.31;5049437;28;20250;-63
2022/10/27 01:41:31;;;;;;;16.17;6.83;;;;;;;14.88;87.81;101376.66;5054801;28;20245;-62
2022/10/27 01:44:05;;;;;;;12.70;6.57;;;;;;;14.84;88.02;101375.31;5050379;28;20222;-63
2022/10/27 01:46:36;;;;;;;13.63;6.80;;;;;;;14.77;88.08;101374.25;5053735;28;20702;-61
2022/10/27 01:49:05;;;;;;;16.70;7.93;;;;;;;14.67;89.17;101369.84;5050237;28;20211;-62
2022/10/27 01:51:32;;;;;;;11.83;6.37;;;;;;;14.65;88.82;101368.31;5051162;28;20209;-61
2022/10/27 01:54:00;;;;;;;15.83;7.40;;;;;;;14.64;88.68;101372.81;5052498;28;20275;-61
2022/10/27 01:56:47;;;;;;;22.73;7.40;;;;;;;14.60;88.42;101378.59;5052423;28;20737;-62
2022/10/27 01:59:29;;;;;;;15.00;7.20;;;;;;;14.59;88.55;101383.09;5055948;28;20731;-61
2022/10/27 02:02:10;;;;;;;18.83;7.40;;;;;;;14.64;88.69;101369.28;5056808;28;20199;-62
2022/10/27 02:04:46;;;;;;;18.90;7.43;;;;;;;14.72;88.20;101376.53;5054173;28;20207;-60
2022/10/27 02:07:22;;;;;;;12.70;6.77;;;;;;;14.69;88.12;101381.19;5058134;28;20206;-62
2022/10/27 02:09:55;;;;;;;14.53;7.73;;;;;;;14.60;88.88;101386.63;5055019;28;20602;-60
2022/10/27 02:12:28;;;;;;;13.13;7.33;;;;;;;14.53;89.42;101389.03;5052123;28;20352;-61
2022/10/27 02:14:59;;;;;;;13.63;6.87;;;;;;;14.58;89.03;101384.09;5057839;28;20207;-61
2022/10/27 02:17:33;;;;;;;12.73;6.67;;;;;;;14.56;88.25;101393.22;5051934;28;20244;-62
2022/10/27 02:20:05;;;;;;;14.40;6.77;;;;;;;14.55;87.82;101395.06;5054956;28;20719;-62
2022/10/27 02:22:36;;;;;;;13.17;6.87;;;;;;;14.50;88.00;101391.19;5060769;28;20211;-63
2022/10/27 02:25:05;;;;;;;11.87;6.13;;;;;;;14.52;88.19;101390.00;5061612;28;20309;-62
2022/10/27 02:27:36;;;;;;;14.60;6.33;;;;;;;14.51;88.19;101390.19;5054720;28;20210;-62
2022/10/27 02:30:05;;;;;;;10.80;6.23;;;;;;;14.47;87.78;101391.47;5053477;28;20211;-61
2022/10/27 02:32:35;;;;;;;12.43;7.13;;;;;;;14.47;87.54;101391.47;5049207;28;20203;-62
2022/10/27 02:35:04;;;;;;;11.67;6.43;;;;;;;14.41;87.23;101392.94;5052460;28;20215;-62
2022/10/27 02:37:35;;;;;;;13.47;6.60;;;;;;;14.39;87.18;101391.38;5052139;28;20210;-62
2022/10/27 02:40:03;;;;;;;13.97;6.33;;;;;;;14.41;86.97;101395.59;5057426;28;20253;-62
2022/10/27 02:42:31;;;;;;;11.60;5.93;;;;;;;14.37;86.74;101388.84;5050428;28;20241;-61
2022/10/27 02:44:58;;;;;;;15.23;6.73;;;;;;;14.30;86.80;101388.59;5053442;28;20265;-63
2022/10/27 02:47:26;;;;;;;11.37;6.67;;;;;;;14.33;86.35;101387.47;5054020;28;20227;-61
2022/10/27 02:49:55;;;;;;;14.77;7.07;;;;;;;14.30;86.45;101385.09;5052222;28;20207;-62
2022/10/27 02:52:22;;;;;;;10.63;5.83;;;;;;;14.25;85.83;101385.53;5053584;28;20630;-61
2022/10/27 02:54:50;;;;;;;12.00;6.67;;;;;;;14.23;86.16;101365.34;5046113;28;20243;-61
2022/10/27 02:57:18;;;;;;;9.80;5.77;;;;;;;14.38;85.25;101381.66;5048730;28;20205;-63
2022/10/27 02:59:46;;;;;;;14.83;6.27;;;;;;;14.34;84.64;101373.13;5047986;28;20949;-63
2022/10/27 03:02:21;;;;;;;11.60;6.73;;;;;;;14.20;84.95;101371.81;5047065;28;20257;-62
2022/10/27 03:04:49;;;;;;;11.23;6.17;;;;;;;14.15;85.38;101373.25;5051207;28;20207;-60
2022/10/27 03:07:19;;;;;;;14.10;5.70;;;;;;;14.06;85.60;101375.00;5046356;28;20884;-62
2022/10/27 03:09:46;;;;;;;12.73;5.83;;;;;;;14.07;85.45;101370.50;5047264;28;20215;-61
2022/10/27 03:12:14;;;;;;;11.67;5.57;;;;;;;14.06;85.11;101366.16;5049344;28;20205;-62
2022/10/27 03:14:42;;;;;;;9.93;5.70;;;;;;;14.07;84.54;101384.66;5048959;28;20277;-62
2022/10/27 03:17:09;;;;;;;14.47;5.90;;;;;;;14.02;84.18;101380.75;5050265;28;20219;-63
2022/10/27 03:19:37;;;;;;;9.43;5.33;;;;;;;14.02;84.17;101386.94;5046262;28;20210;-61
2022/10/27 03:22:04;;;;;;;11.17;4.90;;;;;;;14.01;84.09;101381.75;5050548;28;20564;-63
2022/10/27 03:24:33;;;;;;;11.67;5.17;;;;;;;14.00;83.57;101382.72;5053021;28;20639;-62
2022/10/27 03:27:01;;;;;;;9.20;4.83;;;;;;;14.01;83.91;101385.25;5053137;28;20660;-61
2022/10/27 03:29:29;;;;;;;9.70;5.13;;;;;;;13.98;84.01;101390.91;5048429;28;20254;-60
2022/10/27 03:31:56;;;;;;;11.63;4.70;;;;;;;13.96;84.20;101389.34;5047871;28;20276;-62
2022/10/27 03:34:24;;;;;;;12.97;5.80;;;;;;;14.06;84.06;101380.31;5045235;28;20213;-62
2022/10/27 03:36:51;;;;;;;11.83;5.20;;;;;;;14.12;83.90;101378.88;5051562;28;20295;-61
2022/10/27 03:39:19;;;;;;;8.03;4.67;;;;;;;14.10;84.29;101373.69;5059430;28;20205;-64
2022/10/27 03:41:48;;;;;;;11.87;5.93;;;;;;;14.03;84.57;101380.63;5047894;28;20886;-63
2022/10/27 03:44:15;;;;;;;11.47;4.97;;;;;;;14.06;84.96;101368.81;5044061;28;20217;-63
2022/10/27 03:46:43;;;;;;;13.40;5.97;;;;;;;14.02;85.64;101375.41;5053321;28;20208;-63
2022/10/27 03:49:11;;;;;;;12.30;5.20;;;;;;;13.91;86.45;101371.13;5051863;28;20243;-63
2022/10/27 03:51:38;;;;;;;13.77;6.53;;;;;;;13.84;86.91;101373.53;5049621;28;20211;-63
2022/10/27 03:54:06;;;;;;;13.97;5.63;;;;;;;13.81;86.70;101383.66;5048476;28;20224;-64
2022/10/27 03:56:33;;;;;;;10.50;5.00;;;;;;;13.81;86.26;101380.97;5048250;28;20227;-62
2022/10/27 03:59:02;;;;;;;11.87;4.80;;;;;;;13.88;85.50;101382.94;5047175;28;20201;-62
2022/10/27 04:01:33;;;;;;;16.63;5.97;;;;;;;13.85;84.51;101383.22;5056700;28;20631;-62
2022/10/27 04:04:03;;;;;;;17.10;6.80;;;;;;;13.78;84.97;101376.81;5051886;28;20611;-62
2022/10/27 04:06:31;;;;;;;13.40;6.73;;;;;;;13.79;84.79;101383.81;5058702;28;20569;-63
2022/10/27 04:08:58;;;;;;;14.47;6.70;;;;;;;13.78;84.73;101391.97;5050453;28;20215;-62
2022/10/27 04:11:26;;;;;;;12.80;6.17;;;;;;;13.82;84.49;101396.84;5055502;28;20210;-63
2022/10/27 04:13:54;;;;;;;13.27;6.43;;;;;;;13.82;84.03;101394.16;5049188;28;20236;-63
2022/10/27 04:16:23;;;;;;;13.87;6.63;;;;;;;13.79;84.10;101389.16;5053153;28;20217;-63
2022/10/27 04:18:51;;;;;;;12.30;6.23;;;;;;;13.70;84.14;101390.03;5049349;28;20253;-62
2022/10/27 04:21:18;;;;;;;11.00;6.37;;;;;;;13.65;84.74;101397.59;5052926;28;20907;-61
2022/10/27 04:23:46;;;;;;;13.73;6.53;;;;;;;13.59;85.48;101392.88;5056308;28;20240;-62
2022/10/27 04:26:14;;;;;;;16.77;6.83;;;;;;;13.59;85.19;101392.88;5054931;28;20211;-63
2022/10/27 04:28:41;;;;;;;11.07;6.10;;;;;;;13.66;84.65;101390.44;5049942;28;20210;-62
2022/10/27 04:31:09;;;;;;;13.33;6.37;;;;;;;13.65;83.96;101386.09;5050303;28;20606;-62
2022/10/27 04:33:38;;;;;;;14.13;7.27;;;;;;;13.58;84.58;101388.53;5045459;28;20247;-63
2022/10/27 04:36:06;;;;;;;9.97;5.93;;;;;;;13.77;83.70;101385.78;5044930;28;20258;-62
2022/10/27 04:38:33;;;;;;;9.23;5.87;;;;;;;13.78;83.65;101387.47;5049991;28;20245;-62
2022/10/27 04:41:04;;;;;;;11.27;5.73;;;;;;;13.77;84.39;101379.63;5045739;28;20211;-63
2022/10/27 04:43:31;;;;;;;8.43;6.03;;;;;;;13.78;85.09;101381.28;5043609;28;20267;-62
2022/10/27 04:45:59;;;;;;;8.83;5.83;;;;;;;13.77;86.13;101377.78;5044638;28;20239;-61
2022/10/27 04:48:26;;;;;;;8.40;5.57;;;;;;;13.74;87.48;101385.22;5045184;28;20245;-62
2022/10/27 04:50:55;;;;;;;8.10;5.57;;;;;;;13.71;88.09;101389.06;5045325;28;20212;-62
2022/10/27 04:53:23;;;;;;;7.83;5.40;;;;;;;13.66;88.44;101383.28;5048422;28;20210;-62
2022/10/27 04:55:53;;;;;;;12.93;8.07;;;;;;;13.71;88.54;101383.72;5047738;28;20213;-63
2022/10/27 04:58:21;;;;;;;21.77;7.43;;;;;;;13.77;88.09;101377.78;5044547;28;20209;-62
2022/10/27 05:00:49;;;;;;;11.27;7.00;;;;;;;13.76;88.34;101381.44;5043370;28;20209;-62
2022/10/27 05:03:16;;;;;;;11.33;6.07;;;;;;;13.78;88.19;101390.13;5048402;28;20272;-64
2022/10/27 05:05:44;;;;;;;10.30;6.70;;;;;;;13.80;88.20;101388.16;5046629;28;20214;-62
2022/10/27 05:08:13;;;;;;;12.03;6.10;;;;;;;13.86;87.46;101389.41;5048826;28;20275;-62
2022/10/27 05:10:41;;;;;;;10.67;6.20;;;;;;;13.86;87.43;101392.91;5042777;28;20253;-62
2022/10/27 05:13:08;;;;;;;11.20;6.80;;;;;;;13.78;87.91;101408.78;5049939;28;20287;-61
2022/10/27 05:15:36;;;;;;;8.80;5.40;;;;;;;13.76;88.34;101405.44;5044293;28;20212;-61
2022/10/27 05:18:04;;;;;;;10.00;5.30;;;;;;;13.75;88.12;101401.06;5048902;28;20644;-61
2022/10/27 05:20:37;;;;;;;7.77;5.10;;;;;;;13.80;88.38;101412.16;5049227;28;20206;-61
2022/10/27 05:23:04;;;;;;;9.07;5.60;;;;;;;13.85;88.13;101399.22;5049903;28;20228;-60
2022/10/27 05:25:34;;;;;;;7.43;4.90;;;;;;;13.85;87.90;101399.22;5045892;28;20232;-62
2022/10/27 05:28:03;;;;;;;9.47;4.47;;;;;;;13.86;87.85;101402.72;5051041;28;20209;-61
2022/10/27 05:30:31;;;;;;;11.97;4.37;;;;;;;13.85;87.87;101393.06;5050605;28;20205;-62
2022/10/27 05:32:58;;;;;;;13.73;4.90;;;;;;;13.87;87.29;101391.09;5042689;28;20217;-61
2022/10/27 05:35:26;;;;;;;16.60;4.90;;;;;;;13.85;87.61;101391.22;5050216;28;20208;-63
2022/10/27 05:37:55;;;;;;;12.23;5.00;;;;;;;13.85;87.84;101388.56;5046085;28;20723;-63
2022/10/27 05:40:23;;;;;;;13.57;4.13;;;;;;;13.85;88.23;101388.56;5051615;28;20205;-63
2022/10/27 05:42:54;;;;;;;13.00;5.37;;;;;;;13.84;89.13;101394.88;5048520;28;20230;-62
2022/10/27 05:45:23;;;;;;;12.07;5.83;;;;;;;13.89;89.61;101391.78;5056767;28;20230;-62
2022/10/27 05:47:57;;;;;;;15.33;6.37;;;;;;;13.89;90.30;101381.97;5052890;28;20258;-63
2022/10/27 05:50:24;;;;;;;7.40;5.40;;;;;;;13.89;90.52;101379.28;5054963;28;20727;-61
2022/10/27 05:52:52;;;;;;;10.10;6.17;;;;;;;13.91;90.21;101374.63;5050895;28;20199;-63
2022/10/27 05:55:22;;;;;;;7.67;5.70;;;;;;;13.99;90.47;101383.72;5053656;28;20207;-63
2022/10/27 05:57:54;;;;;;;11.07;6.90;;;;;;;14.02;90.33;101378.94;5050077;28;21059;-61
2022/10/27 06:00:25;;;;;;;20.73;5.90;;;;;;;14.04;89.98;101365.44;5048824;28;20291;-60
2022/10/27 06:02:56;;;;;;;10.57;6.87;;;;;;;14.04;90.51;101376.13;5050455;28;20231;-63
2022/10/27 06:05:24;;;;;;;16.15;8.27;;;;;;;14.32;89.00;101377.78;5046345;28;20454;-61
2022/10/27 06:07:51;;;;;;;16.60;8.03;;;;;;;14.19;88.97;101380.78;5059671;28;20207;-62
2022/10/27 06:10:19;;;;;;;10.63;6.90;;;;;;;14.11;89.72;101377.19;5053834;28;20209;-62
2022/10/27 06:12:47;;;;;;;16.73;7.77;;;;;;;14.10;90.20;101394.19;5051584;28;20234;-62
2022/10/27 06:15:16;;;;;;;21.00;7.30;;;;;;;14.11;89.97;101382.53;5047710;28;20264;-63
2022/10/27 06:17:44;;;;;;;19.27;8.10;;;;;;;14.08;90.30;101389.00;5053945;28;20647;-63
2022/10/27 06:20:12;;;;;;;15.50;7.90;;;;;;;13.99;90.88;101389.03;5049351;28;20216;-63
2022/10/27 06:22:39;;;;;;;16.47;9.10;;;;;;;14.03;90.88;101390.44;5055085;28;20230;-62
2022/10/27 06:25:08;;;;;;;17.47;9.07;;;;;;;14.06;90.50;101390.16;5071037;28;20264;-63
2022/10/27 06:27:35;;;;;;;19.67;9.70;;;;;;;14.05;90.68;101391.13;5067008;28;20215;-63
2022/10/27 06:30:03;;;;;;;22.73;9.80;;;;;;;14.08;90.35;101382.81;5057590;28;20209;-63
2022/10/27 06:32:37;;;;;;;13.40;8.10;;;;;;;14.08;90.23;101386.31;5050868;28;20207;-62
2022/10/27 06:35:08;;;;;;;17.90;8.53;;;;;;;14.09;90.12;101389.84;5055155;28;20212;-62
2022/10/27 06:37:38;;;;;;;13.67;8.17;;;;;;;14.06;90.13;101398.16;5055576;28;20202;-61
2022/10/27 06:40:07;;;;;;;17.03;8.53;;;;;;;14.11;90.13;101403.88;5057715;28;20203;-62
2022/10/27 06:42:36;;;;;;;26.80;9.10;;;;;;;14.08;90.63;101409.50;5057640;28;20227;-61
2022/10/27 06:45:22;;;;;;;15.37;7.53;;;;;;;14.07;91.07;101408.66;5054943;28;20614;-61
2022/10/27 06:47:57;;;;;;;11.67;7.27;;;;;;;14.16;90.23;101406.94;5050625;28;20212;-62
2022/10/27 06:50:25;;;;;;;13.83;7.20;;;;;;;14.17;89.77;101419.28;5054110;28;20213;-62
2022/10/27 06:52:53;;;;;;;9.43;6.43;;;;;;;14.19;89.58;101422.63;5052432;28;20629;-62
2022/10/27 06:55:21;;;;;;;12.40;7.57;;;;;;;14.22;89.58;101417.00;5049695;28;20218;-62
2022/10/27 06:57:48;;;;;;;11.40;7.87;;;;;;;14.21;89.87;101418.84;5052867;28;20656;-62
2022/10/27 07:00:17;;;;;;;13.60;7.37;;;;;;;14.23;90.17;101413.38;5052912;28;20203;-63
2022/10/27 07:02:45;;;;;;;14.33;7.50;;;;;;;14.25;89.61;101425.53;5047027;28;20699;-63
2022/10/27 07:05:14;;;;;;;11.80;7.77;;;;;;;14.29;90.06;101428.75;5054791;28;20789;-63
2022/10/27 07:07:46;;;;;;;10.40;7.00;;;;;;;14.32;90.32;101429.31;5048169;28;20215;-63
2022/10/27 07:10:15;;;;;;;16.57;7.60;;;;;;;14.32;90.27;101426.66;5047982;28;20221;-63
2022/10/27 07:12:52;;;;;;;13.67;7.77;;;;;;;14.36;89.89;101418.31;5048887;28;20673;-64
2022/10/27 07:15:20;;;;;;;12.63;7.47;;;;;;;14.43;89.35;101430.09;5043163;28;20207;-64
2022/10/27 07:17:48;;;;;;;14.53;8.17;;;;;;;14.43;89.52;101422.94;5050120;28;20204;-62
2022/10/27 07:20:18;;;;;;;11.97;7.70;;;;;;;14.46;89.68;101414.66;5051487;28;20269;-63
2022/10/27 07:22:45;;;;;;;12.67;7.20;;;;;;;14.50;89.48;101425.88;5056680;28;20226;-63
2022/10/27 07:25:13;;;;;;;12.17;8.10;;;;;;;14.52;89.36;101423.88;5061297;28;20283;-62
2022/10/27 07:27:41;;;;;;;14.50;7.87;;;;;;;14.53;89.45;101426.41;5053072;28;20242;-63
2022/10/27 07:30:09;;;;;;;10.03;7.57;;;;;;;14.60;89.42;101426.66;5057049;28;20215;-62
2022/10/27 07:32:37;;;;;;;12.23;7.27;;;;;;;14.67;88.70;101428.56;5059448;28;20203;-62
2022/10/27 07:35:06;;;;;;;11.37;7.60;;;;;;;14.70;89.23;101432.75;5061331;28;20268;-61
2022/10/27 07:37:35;;;;;;;14.77;8.30;;;;;;;14.74;89.36;101427.94;5055177;28;20608;-63
2022/10/27 07:40:03;;;;;;;12.60;8.87;;;;;;;14.84;88.75;101423.38;5048309;28;20261;-62
2022/10/27 07:42:30;;;;;;;11.43;8.67;;;;;;;14.94;88.22;101442.84;5052830;28;20224;-64
2022/10/27 07:44:58;;;;;;;11.83;7.93;;;;;;;14.99;87.90;101444.06;5054705;28;20362;-64
2022/10/27 07:47:26;;;;;;;12.07;8.50;;;;;;;15.09;87.14;101449.31;5053007;28;20208;-64
2022/10/27 07:49:53;;;;;;;11.97;8.60;;;;;;;15.09;87.38;101451.16;5056322;28;20211;-64
2022/10/27 07:52:21;;;;;;;12.40;8.33;;;;;;;15.16;87.30;101439.69;5051366;28;20207;-65
2022/10/27 07:54:50;;;;;;;12.97;8.93;;;;;;;15.28;86.42;101440.28;5057794;28;20257;-64
2022/10/27 07:57:18;;;;;;;10.73;8.10;;;;;;;15.25;86.20;101440.59;5052678;28;20203;-65
2022/10/27 07:59:45;;;;;;;12.10;7.33;;;;;;;15.27;86.40;101443.94;5065314;28;20561;-65
2022/10/27 08:02:13;;;;;;;14.13;8.57;;;;;;;15.29;86.57;101447.31;5060352;28;20207;-64
2022/10/27 08:04:41;;;;;;;14.23;9.03;;;;;;;15.24;87.73;101450.44;5064840;28;20239;-66
2022/10/27 08:07:09;;;;;;;12.97;8.87;;;;;;;15.26;87.87;101450.28;5064378;28;20605;-65
2022/10/27 08:09:37;;;;;;;12.37;8.67;;;;;;;15.31;87.61;101451.50;5055626;28;20216;-63
2022/10/27 08:12:06;;;;;;;16.87;10.23;;;;;;;15.37;87.61;101444.69;5059397;28;20280;-65
2022/10/27 08:14:34;;;;;;;19.73;10.40;;;;;;;15.33;88.88;101451.34;5055081;28;20639;-65
2022/10/27 08:17:01;;;;;;;25.83;11.67;;;;;;;15.37;89.13;101440.19;5066803;28;20211;-65
2022/10/27 08:19:31;;;;;;;20.97;11.53;;;;;;;15.44;89.11;101443.06;5058107;28;20302;-63
2022/10/27 08:21:59;;;;;;;19.27;11.20;;;;;;;15.51;89.11;101453.97;5055399;28;20766;-65
2022/10/27 08:24:26;;;;;;;22.23;12.17;;;;;;;15.59;88.63;101449.56;5051915;28;20239;-66
2022/10/27 08:26:54;;;;;;;20.80;12.33;;;;;;;15.67;88.95;101448.78;5062511;28;20280;-65
2022/10/27 08:29:25;;;;;;;22.33;12.83;;;;;;;15.77;88.65;101447.66;5055395;28;20207;-65
2022/10/27 08:31:52;;;;;;;18.37;11.47;;;;;;;15.87;88.50;101446.72;5047673;28;20251;-65
2022/10/27 08:34:21;;;;;;;22.83;12.93;;;;;;;15.95;87.38;101449.44;5049915;28;20215;-65
2022/10/27 08:36:49;;;;;;;20.93;13.17;;;;;;;16.02;86.79;101447.78;5045525;28;20216;-63
2022/10/27 08:39:16;;;;;;;28.57;15.07;;;;;;;16.02;88.24;101456.66;5052746;28;20258;-63
2022/10/27 08:41:56;;;;;;;30.80;16.53;;;;;;;16.06;88.49;101452.69;5046023;28;20236;-64
2022/10/27 08:44:27;;;;;;;35.13;18.17;;;;;;;16.08;88.92;101460.56;5048907;28;20947;-64
2022/10/27 08:46:59;;;;;;;37.40;18.53;;;;;;;16.10;88.09;101456.69;5048182;28;20220;-64
2022/10/27 08:49:34;;;;;;;31.90;17.00;;;;;;;16.16;87.67;101456.06;5053664;28;20215;-64
2022/10/27 08:52:10;;;;;;;27.57;17.30;;;;;;;16.14;88.05;101455.41;5051325;28;20326;-64
2022/10/27 08:54:39;;;;;;;29.03;16.97;;;;;;;16.24;87.80;101455.28;5053866;28;20195;-64
2022/10/27 08:57:12;;;;;;;23.10;14.87;;;;;;;16.32;86.33;101451.78;5055319;28;20239;-64
2022/10/27 08:59:41;;;;;;;29.23;16.10;;;;;;;16.31;86.56;101453.63;5050765;28;20204;-65
2022/10/27 09:02:25;;;;;;;22.43;15.17;;;;;;;16.42;86.34;101456.00;5047805;28;20290;-65
2022/10/27 09:05:20;;;;;;;29.30;17.10;;;;;;;16.43;86.16;101452.34;5051590;28;20315;-63
2022/10/27 09:07:56;;;;;;;24.50;14.90;;;;;;;16.44;87.18;101454.03;5051296;28;20253;-63
2022/10/27 09:10:38;;;;;;;27.73;16.90;;;;;;;16.60;86.17;101447.88;5052340;28;20300;-63
2022/10/27 09:13:12;;;;;;;29.60;16.60;;;;;;;16.57;85.20;101458.91;5052969;28;20296;-64
2022/10/27 09:15:44;;;;;;;27.90;17.33;;;;;;;16.57;85.69;101458.91;5054300;28;20768;-64
2022/10/27 09:18:20;;;;;;;29.67;17.63;;;;;;;16.63;85.73;101457.41;5052815;28;20200;-65
2022/10/27 09:20:51;;;;;;;26.33;17.77;;;;;;;16.74;85.15;101455.28;5054270;28;20207;-64
2022/10/27 09:23:28;;;;;;;29.90;17.73;;;;;;;16.75;85.02;101456.13;5047375;28;20258;-64
2022/10/27 09:25:58;;;;;;;29.47;17.20;;;;;;;16.77;85.00;101454.97;5055098;28;20239;-63
2022/10/27 09:28:32;;;;;;;27.10;17.43;;;;;;;16.81;84.57;101450.94;5059762;28;20276;-63
2022/10/27 09:31:03;;;;;;;33.57;19.90;;;;;;;16.80;85.04;101451.94;5060260;28;20200;-61
2022/10/27 09:33:34;;;;;;;27.73;17.90;;;;;;;16.87;84.89;101450.31;5058727;28;20665;-62
2022/10/27 09:36:12;;;;;;;34.37;20.40;;;;;;;16.98;84.06;101456.31;5051191;28;20908;-62
2022/10/27 09:38:40;;;;;;;26.13;17.53;;;;;;;17.03;84.00;101451.31;5050531;28;20208;-62
2022/10/27 09:41:08;;;;;;;33.33;18.93;;;;;;;17.04;84.32;101450.31;5052140;28;20207;-63
2022/10/27 09:43:37;;;;;;;31.97;19.43;;;;;;;17.08;83.66;101451.63;5051627;28;20211;-62
2022/10/27 09:46:12;;;;;;;32.80;20.33;;;;;;;17.12;84.24;101448.47;5053070;28;20247;-63
2022/10/27 09:48:40;;;;;;;28.90;19.00;;;;;;;17.15;84.38;101442.75;5052225;28;20208;-63
2022/10/27 09:51:14;;;;;;;25.30;17.80;;;;;;;17.18;83.92;101452.31;5052148;28;20208;-64
2022/10/27 09:53:46;;;;;;;26.67;17.20;;;;;;;17.29;82.81;101443.94;5050158;28;20207;-64
2022/10/27 09:56:23;;;;;;;27.20;17.70;;;;;;;17.39;81.26;101438.41;5058489;28;20211;-62
2022/10/27 09:58:57;;;;;;;29.17;18.43;;;;;;;17.51;80.36;101437.88;5060971;28;20257;-62
2022/10/27 10:01:28;;;;;;;26.80;18.73;;;;;;;17.78;80.05;101434.00;5049113;28;20200;-63
2022/10/27 10:04:02;;;;;;;36.13;19.30;;;;;;;18.08;78.94;101429.72;5051049;28;20244;-63
2022/10/27 10:06:36;;;;;;;30.47;18.20;;;;;;;18.39;77.35;101435.94;5056727;28;20254;-63
2022/10/27 10:09:23;;;;;;;28.97;18.20;;;;;;;18.70;76.05;101435.16;5058087;28;20211;-63
2022/10/27 10:11:51;;;;;;;38.40;21.33;;;;;;;18.75;75.27;101436.28;5054686;28;20204;-62
2022/10/27 10:14:24;;;;;;;34.47;19.80;;;;;;;18.93;74.53;101441.34;5058001;28;20216;-63
2022/10/27 10:16:54;;;;;;;34.47;19.83;;;;;;;19.52;70.87;101428.97;5055081;28;20208;-63
2022/10/27 10:19:23;;;;;;;34.80;21.97;;;;;;;20.36;67.16;101421.44;5069104;28;20200;-64
2022/10/27 10:21:54;;;;;;;34.53;21.00;;;;;;;21.92;60.51;101430.31;5052043;28;20207;-63
2022/10/27 10:24:25;;;;;;;37.10;20.63;;;;;;;22.00;59.32;101432.88;5056437;28;20251;-64
2022/10/27 10:26:56;;;;;;;32.93;21.07;;;;;;;22.26;59.48;101434.88;5053513;28;20334;-65
2022/10/27 10:29:29;;;;;;;36.50;19.97;;;;;;;21.65;61.45;101431.19;5053990;28;20208;-63
2022/10/27 10:32:13;;;;;;;31.13;19.33;;;;;;;20.88;63.76;101433.81;5057852;28;20212;-63
2022/10/27 10:34:43;;;;;;;34.67;19.47;;;;;;;20.19;66.59;101428.03;5050837;28;20208;-63
2022/10/27 10:37:29;;;;;;;30.87;19.27;;;;;;;19.68;69.49;101421.75;5059066;28;20199;-62
2022/10/27 10:40:26;;;;;;;28.67;18.63;;;;;;;19.57;70.65;101423.03;5066293;28;20208;-63
2022/10/27 10:43:03;;;;;;;35.87;17.03;;;;;;;19.92;69.07;101411.53;5062005;28;20249;-64
2022/10/27 10:45:33;;;;;;;26.03;16.17;;;;;;;20.00;69.38;101412.44;5059701;28;20704;-64
2022/10/27 10:48:07;;;;;;;26.57;16.67;;;;;;;20.27;68.62;101412.59;5059689;28;20207;-64
2022/10/27 10:50:45;;;;;;;29.93;16.73;;;;;;;20.59;67.56;101405.94;5057133;28;20200;-64
2022/10/27 10:53:26;;;;;;;26.77;14.83;;;;;;;20.82;66.69;101405.78;5065708;28;20530;-65
2022/10/27 10:56:01;;;;;;;25.53;13.17;;;;;;;21.16;65.37;101399.66;5064667;28;20721;-65
2022/10/27 10:58:31;;;;;;;26.53;12.63;;;;;;;21.45;64.31;101403.25;5058369;28;20204;-64
2022/10/27 11:01:01;;;;;;;19.63;13.60;;;;;;;22.02;62.12;101398.41;5064836;28;20216;-64
2022/10/27 11:03:33;;;;;;;21.02;13.88;;;;;;;22.28;60.59;101399.53;5058361;28;20208;-65
2022/10/27 11:06:04;;;;;;;24.55;13.40;;;;;;;22.80;59.91;101388.06;5054458;28;20230;-64
2022/10/27 11:08:38;;;;;;;22.67;13.57;;;;;;;23.77;56.11;101390.09;5052702;28;20200;-64
2022/10/27 11:11:16;;;;;;;19.92;13.52;;;;;;;25.24;51.08;101387.25;5064537;28;20211;-64
2022/10/27 11:13:48;;;;;;;18.52;11.93;;;;;;;26.56;47.88;101379.22;5059248;28;20218;-65
2022/10/27 11:16:16;;;;;;;24.77;15.25;;;;;;;27.36;45.50;101376.06;5058450;28;20314;-65
2022/10/27 11:18:51;;;;;;;26.38;16.25;;;;;;;27.31;44.96;101373.25;5058436;28;20216;-65
2022/10/27 11:21:30;;;;;;;20.25;14.75;;;;;;;26.89;46.00;101364.31;5061121;28;20660;-66
2022/10/27 11:24:02;;;;;;;26.63;16.40;;;;;;;26.68;46.69;101351.25;5062822;28;20218;-64
2022/10/27 11:26:36;;;;;;;19.92;14.57;;;;;;;26.26;47.76;101350.38;5069265;28;20238;-64
2022/10/27 11:29:14;;;;;;;24.52;17.00;;;;;;;26.26;47.71;101343.06;5062346;28;20215;-63
2022/10/27 11:31:53;;;;;;;23.52;15.90;;;;;;;26.81;46.87;101334.72;5066483;28;20218;-63